Reggio, Louisiana
Current Conditions -  °F | °C
As of 7:48 AM on Friday 19 Dec 2014 (Local Time) from KNBG Reporting Station
Overcast Overcast  
Wind Chill: 56°   Ceiling: 2800
Heat Index: 56°   Visibility: 7mi
Dew Point: 53°   Wind: 12mph
Humidity: 90%   Direction: 50°NE
Pressure: 30.14"   Gusts: NA
Location:  29.8369°N, 89.7702°W
Report Text: KNBG 191348Z 05010KT 7SM BKN028 OVC040 13/12 A3014 RMK AO2 RAE09 P0000 T01330117 $
Loading
Personal Weather Stations






























Interactive Weather Map New forecast layout! Learn more

10-Day Weather Forecast

Advertisements
Track Severe Weather on mobile